Time;durP1;ratioP1;P1;durP2;ratioP2;P2;SDS_P1;SDS_P2;PMS_P1;PMS_P2;Temp;Humidity;BMP_temperature;BMP_pressure;BME280_temperature;BME280_humidity;BME280_pressure;Samples;Min_cycle;Max_cycle;Signal;HPM_P1;HPM_P2
2021/01/13 00:00:56;;;;;;;157.88;82.80;;;26.50;2201.60;;;;;;5015503;28;20107;-85
2021/01/13 00:03:22;;;;;;;170.00;84.85;;;26.40;2201.60;;;;;;5015359;28;20036;-85
2021/01/13 00:05:48;;;;;;;152.32;80.45;;;26.40;2201.60;;;;;;5015453;28;20456;-86
2021/01/13 00:08:14;;;;;;;157.30;84.53;;;26.30;2201.60;;;;;;5015199;28;20030;-85
2021/01/13 00:10:40;;;;;;;156.27;81.53;;;26.40;2201.60;;;;;;5015370;28;20088;-81
2021/01/13 00:13:06;;;;;;;162.70;81.93;;;26.20;2201.60;;;;;;5029682;28;20040;-84
2021/01/13 00:15:32;;;;;;;171.35;85.10;;;26.20;2201.60;;;;;;5036777;28;20087;-85
2021/01/13 00:17:57;;;;;;;155.80;78.22;;;26.30;2201.60;;;;;;5055082;28;20021;-83
2021/01/13 00:20:23;;;;;;;153.85;76.00;;;26.30;2201.60;;;;;;5055196;28;20016;-85
2021/01/13 00:22:49;;;;;;;150.20;79.97;;;26.40;2201.60;;;;;;5055886;28;20039;-85
2021/01/13 00:25:16;;;;;;;156.48;85.45;;;26.50;2201.60;;;;;;5055759;28;20028;-86
2021/01/13 00:27:42;;;;;;;168.35;84.25;;;26.40;2201.60;;;;;;5056021;28;20352;-84
2021/01/13 00:30:08;;;;;;;170.70;81.53;;;26.30;2201.60;;;;;;5057226;28;20071;-86
2021/01/13 00:32:34;;;;;;;152.35;81.90;;;26.20;2201.60;;;;;;5059377;28;20055;-84
2021/01/13 00:35:00;;;;;;;154.73;82.85;;;26.30;2201.60;;;;;;5059654;28;20361;-87
2021/01/13 00:37:26;;;;;;;149.15;78.80;;;26.20;2201.60;;;;;;5059528;28;20067;-86
2021/01/13 00:39:52;;;;;;;147.27;74.72;;;26.20;2201.60;;;;;;5059716;28;20024;-86
2021/01/13 00:42:18;;;;;;;144.75;73.70;;;26.10;2201.60;;;;;;5059107;28;20049;-84
2021/01/13 00:44:44;;;;;;;151.70;75.28;;;26.20;2201.60;;;;;;5059426;28;20032;-86
2021/01/13 00:47:14;;;;;;;143.15;74.47;;;26.30;2201.60;;;;;;5059143;28;20047;-86
2021/01/13 00:49:40;;;;;;;154.35;76.28;;;26.20;2201.60;;;;;;5059287;28;20029;-85
2021/01/13 00:52:09;;;;;;;150.63;77.63;;;26.50;2201.60;;;;;;5059123;28;20035;-84
2021/01/13 00:54:35;;;;;;;148.85;75.78;;;26.30;2201.60;;;;;;5059165;28;20024;-84
2021/01/13 00:57:01;;;;;;;152.35;79.97;;;26.20;2201.60;;;;;;5058956;28;20055;-86
2021/01/13 00:59:27;;;;;;;152.40;77.70;;;51.80;2227.20;;;;;;5059122;28;20024;-85
2021/01/13 01:01:53;;;;;;;151.20;75.63;;;26.10;2201.60;;;;;;5058859;28;20033;-86
2021/01/13 01:04:19;;;;;;;158.32;77.15;;;26.20;2201.60;;;;;;5059045;28;20533;-86
2021/01/13 01:06:49;;;;;;;146.55;78.10;;;26.20;2201.60;;;;;;5058755;28;20074;-87
2021/01/13 01:09:16;;;;;;;164.95;80.75;;;26.30;2201.60;;;;;;5059375;28;20025;-86
2021/01/13 01:11:42;;;;;;;151.00;80.82;;;26.30;2201.60;;;;;;5058610;28;20024;-85
2021/01/13 01:14:10;;;;;;;148.05;74.90;;;26.30;2201.60;;;;;;5058433;28;20033;-86
2021/01/13 01:16:38;;;;;;;151.25;79.22;;;26.40;2201.60;;;;;;5058888;28;20027;-87
2021/01/13 01:19:06;;;;;;;151.15;77.90;;;26.40;2201.60;;;;;;5059197;28;20056;-87
2021/01/13 01:21:32;;;;;;;140.40;76.40;;;26.40;2201.60;;;;;;5058555;28;20029;-87
2021/01/13 01:23:58;;;;;;;151.25;80.10;;;26.40;2201.60;;;;;;5058862;28;20025;-85
2021/01/13 01:26:24;;;;;;;147.07;75.15;;;26.40;2201.60;;;;;;5058830;28;20380;-85
2021/01/13 01:28:50;;;;;;;155.82;79.85;;;26.20;2201.60;;;;;;5058550;28;20025;-85
2021/01/13 01:31:17;;;;;;;149.43;78.95;;;26.30;2201.60;;;;;;5058340;28;20039;-85
2021/01/13 01:33:43;;;;;;;153.60;80.10;;;26.30;2201.60;;;;;;5058787;28;20109;-85
2021/01/13 01:36:09;;;;;;;142.85;73.88;;;26.40;2201.60;;;;;;5058403;28;20060;-84
2021/01/13 01:38:35;;;;;;;146.25;76.95;;;26.30;2201.60;;;;;;5058508;28;20028;-86
2021/01/13 01:41:03;;;;;;;149.25;73.45;;;26.40;2201.60;;;;;;5058148;28;20024;-84
2021/01/13 01:43:29;;;;;;;138.88;76.65;;;26.40;2201.60;;;;;;5058243;28;20024;-85
2021/01/13 01:45:56;;;;;;;138.82;75.00;;;26.50;2201.60;;;;;;5055723;28;20386;-85
2021/01/13 01:48:35;;;;;;;143.88;72.28;;;26.50;2201.60;;;;;;5058350;28;20021;-86
2021/01/13 01:51:02;;;;;;;138.95;72.45;;;26.50;2201.60;;;;;;5057040;28;20025;-84
2021/01/13 01:53:37;;;;;;;145.55;75.47;;;51.20;2227.20;;;;;;5058264;28;20029;-88
2021/01/13 01:56:13;;;;;;;140.18;73.47;;;26.50;2201.60;;;;;;5058081;28;20021;-87
2021/01/13 01:58:45;;;;;;;150.55;73.38;;;26.40;2201.60;;;;;;5058197;28;20079;-85
2021/01/13 02:01:12;;;;;;;141.00;74.00;;;26.30;2201.60;;;;;;5055977;28;20035;-83
2021/01/13 02:03:48;;;;;;;145.98;74.97;;;26.40;2201.60;;;;;;5058130;28;20032;-86
2021/01/13 02:06:17;;;;;;;152.23;72.53;;;26.20;2201.60;;;;;;5057282;28;20078;-86
2021/01/13 02:08:44;;;;;;;143.55;73.78;;;26.20;2201.60;;;;;;5057612;28;20096;-86
2021/01/13 02:11:24;;;;;;;138.25;74.28;;;26.20;2201.60;;;;;;5057291;28;20082;-85
2021/01/13 02:13:50;;;;;;;142.38;74.00;;;26.20;2201.60;;;;;;5057882;28;20036;-86
2021/01/13 02:16:18;;;;;;;140.55;73.10;;;26.20;2201.60;;;;;;5046651;28;20032;-85
2021/01/13 02:18:46;;;;;;;146.00;71.72;;;26.40;2201.60;;;;;;5037211;28;20029;-86
2021/01/13 02:21:15;;;;;;;140.55;70.70;;;26.40;2201.60;;;;;;5036645;28;20472;-86
2021/01/13 02:24:07;;;;;;;140.20;72.13;;;26.40;2201.60;;;;;;5037286;28;20083;-85
2021/01/13 02:27:11;;;;;;;146.57;79.07;;;51.60;2227.20;;;;;;5024268;28;20075;-83
2021/01/13 02:29:45;;;;;;;158.95;80.00;;;26.40;2201.60;;;;;;5024210;28;20166;-84
2021/01/13 02:32:16;;;;;;;146.20;76.22;;;26.40;2201.60;;;;;;5037387;28;20487;-84
2021/01/13 02:34:48;;;;;;;155.13;83.15;;;26.50;2201.60;;;;;;5037103;28;20036;-85
2021/01/13 02:37:36;;;;;;;157.27;79.05;;;26.50;2201.60;;;;;;5038178;28;20025;-89
2021/01/13 02:40:12;;;;;;;147.05;72.90;;;26.50;2201.60;;;;;;5038315;28;20024;-85
2021/01/13 02:42:45;;;;;;;150.38;74.43;;;26.50;2201.60;;;;;;5038623;28;20183;-87
2021/01/13 02:45:19;;;;;;;150.50;76.55;;;26.30;2201.60;;;;;;5037926;28;20049;-86
2021/01/13 02:47:57;;;;;;;155.93;75.03;;;26.00;2201.60;;;;;;5037136;28;20029;-88
2021/01/13 02:50:28;;;;;;;155.63;78.20;;;26.20;2201.60;;;;;;5037139;28;20111;-86
2021/01/13 02:53:09;;;;;;;153.98;77.40;;;26.30;2201.60;;;;;;5036031;28;20036;-85
2021/01/13 02:55:39;;;;;;;153.27;74.47;;;26.40;2201.60;;;;;;5037473;28;20477;-86
2021/01/13 02:58:08;;;;;;;156.18;78.40;;;26.40;2201.60;;;;;;5037536;28;20032;-87
2021/01/13 03:00:37;;;;;;;158.75;79.70;;;26.40;2201.60;;;;;;5036579;28;20115;-87
2021/01/13 03:03:03;;;;;;;151.20;78.32;;;26.40;2201.60;;;;;;5037036;28;20036;-85
2021/01/13 03:05:30;;;;;;;139.07;70.90;;;26.50;2201.60;;;;;;5036939;28;20083;-85
2021/01/13 03:07:57;;;;;;;143.13;69.53;;;51.20;2227.20;;;;;;5036850;28;20020;-84
2021/01/13 03:10:26;;;;;;;144.48;72.65;;;26.20;2201.60;;;;;;5036753;28;20096;-84
2021/01/13 03:13:00;;;;;;;147.35;70.60;;;26.20;2201.60;;;;;;5036532;28;20033;-87
2021/01/13 03:15:27;;;;;;;149.93;73.00;;;26.10;2201.60;;;;;;5036575;28;20029;-85
2021/01/13 03:17:59;;;;;;;152.15;74.68;;;26.00;2201.60;;;;;;5037737;28;20074;-85
2021/01/13 03:20:50;;;;;;;140.52;68.97;;;26.20;2201.60;;;;;;5035990;28;20032;-84
2021/01/13 03:23:22;;;;;;;150.32;71.43;;;26.20;2201.60;;;;;;5036096;28;20047;-87
2021/01/13 03:25:53;;;;;;;149.48;70.40;;;26.20;2201.60;;;;;;5036751;28;20456;-84
2021/01/13 03:28:23;;;;;;;163.65;73.30;;;26.20;2201.60;;;;;;5036116;28;20035;-85
2021/01/13 03:30:51;;;;;;;153.07;72.18;;;26.10;2201.60;;;;;;5035776;28;20032;-86
2021/01/13 03:33:29;;;;;;;148.10;69.10;;;26.00;2201.60;;;;;;5037314;28;20403;-84
2021/01/13 03:36:09;;;;;;;149.32;72.75;;;26.00;2201.60;;;;;;5035253;28;20029;-86
2021/01/13 03:39:05;;;;;;;150.32;70.43;;;26.00;2201.60;;;;;;5036675;28;20021;-85
2021/01/13 03:41:48;;;;;;;153.60;72.07;;;26.10;2201.60;;;;;;5036035;28;20056;-84
2021/01/13 03:44:14;;;;;;;;;;;26.10;2201.60;;;;;;5036942;28;20031;-86
2021/01/13 03:46:41;;;;;;;151.90;67.38;;;26.10;2201.60;;;;;;5036545;28;19904;-86
2021/01/13 03:49:08;;;;;;;143.10;71.07;;;26.50;2201.60;;;;;;5036130;28;20457;-87
2021/01/13 03:52:04;;;;;;;137.55;67.03;;;26.10;2201.60;;;;;;5036121;28;20039;-85
2021/01/13 03:54:35;;;;;;;151.52;73.28;;;25.90;2201.60;;;;;;5036811;28;20407;-84
2021/01/13 03:57:06;;;;;;;160.15;71.90;;;26.00;2201.60;;;;;;5036140;28;20025;-84
2021/01/13 03:59:42;;;;;;;147.73;70.20;;;26.00;2201.60;;;;;;5036766;28;20048;-83
2021/01/13 04:02:09;;;;;;;142.10;70.40;;;26.00;2201.60;;;;;;5032070;28;20029;-86
2021/01/13 04:04:47;;;;;;;143.73;68.70;;;26.20;2201.60;;;;;;5018084;28;20112;-85
2021/01/13 04:07:14;;;;;;;160.98;73.18;;;26.00;2201.60;;;;;;5020153;28;20025;-86
2021/01/13 04:09:41;;;;;;;149.48;69.18;;;26.10;2201.60;;;;;;5020611;28;20033;-86
2021/01/13 04:12:08;;;;;;;145.57;65.88;;;26.10;2201.60;;;;;;5020299;28;20030;-84
2021/01/13 04:14:45;;;;;;;150.05;71.03;;;26.50;2201.60;;;;;;5020265;28;20029;-84
2021/01/13 04:17:13;;;;;;;149.02;73.43;;;26.00;2201.60;;;;;;5020166;28;20466;-86
2021/01/13 04:19:40;;;;;;;177.02;86.30;;;25.90;2201.60;;;;;;5021103;28;20065;-85
2021/01/13 04:22:07;;;;;;;180.82;83.53;;;25.90;2201.60;;;;;;5020687;28;20074;-87
2021/01/13 04:24:33;;;;;;;169.48;86.13;;;25.80;2201.60;;;;;;5019708;28;20064;-87
2021/01/13 04:26:59;;;;;;;177.48;88.18;;;26.00;2201.60;;;;;;5020000;28;20030;-86
2021/01/13 04:29:25;;;;;;;171.27;83.50;;;26.20;2201.60;;;;;;5020106;28;20026;-85
2021/01/13 04:31:51;;;;;;;175.88;91.72;;;26.10;2201.60;;;;;;5050408;28;20032;-87
2021/01/13 04:34:17;;;;;;;170.18;86.65;;;26.10;2201.60;;;;;;5059581;28;20040;-85
2021/01/13 04:36:49;;;;;;;166.57;78.97;;;26.00;2201.60;;;;;;5059015;28;20036;-85
2021/01/13 04:39:19;;;;;;;156.82;76.93;;;26.00;2201.60;;;;;;5059813;28;20035;-85
2021/01/13 04:42:11;;;;;;;179.73;87.63;;;26.00;2201.60;;;;;;5059352;28;20071;-83
2021/01/13 04:45:00;;;;;;;170.05;82.28;;;26.00;2201.60;;;;;;5059778;28;20082;-86
2021/01/13 04:47:49;;;;;;;165.13;77.10;;;26.10;2201.60;;;;;;5043219;28;20472;-87
2021/01/13 04:50:18;;;;;;;145.80;69.95;;;26.20;2201.60;;;;;;5059674;28;20032;-83
2021/01/13 04:52:47;;;;;;;152.20;72.18;;;26.20;2201.60;;;;;;5058996;28;20127;-85
2021/01/13 04:55:26;;;;;;;158.52;72.78;;;26.20;2201.60;;;;;;5059563;28;20537;-86
2021/01/13 04:58:13;;;;;;;142.32;64.22;;;26.10;2201.60;;;;;;5058936;28;20039;-84
2021/01/13 05:00:59;;;;;;;142.77;69.28;;;26.00;2201.60;;;;;;5051462;28;20504;-85
2021/01/13 05:03:41;;;;;;;146.68;68.40;;;26.10;2201.60;;;;;;5039081;28;20021;-86
2021/01/13 05:06:31;;;;;;;151.10;69.80;;;26.20;2201.60;;;;;;5038101;28;20380;-84
2021/01/13 05:09:08;;;;;;;140.45;67.30;;;26.30;2201.60;;;;;;5040022;28;20037;-84
2021/01/13 05:11:42;;;;;;;151.73;74.72;;;26.40;2201.60;;;;;;5038652;28;20029;-84
2021/01/13 05:14:12;;;;;;;159.60;74.18;;;26.20;2201.60;;;;;;5038924;28;20505;-84
2021/01/13 05:16:48;;;;;;;159.18;78.70;;;26.20;2201.60;;;;;;5037556;28;20036;-86
2021/01/13 05:19:32;;;;;;;151.80;73.07;;;26.20;2201.60;;;;;;5039128;28;20025;-85
2021/01/13 05:22:00;;;;;;;150.68;70.93;;;26.20;2201.60;;;;;;5038189;28;20033;-84
2021/01/13 05:24:28;;;;;;;147.00;72.90;;;26.30;2201.60;;;;;;5038908;28;20047;-86
2021/01/13 05:27:02;;;;;;;154.88;73.07;;;26.40;2201.60;;;;;;5038361;28;20025;-84
2021/01/13 05:29:36;;;;;;;145.95;67.28;;;26.40;2201.60;;;;;;5038740;28;20033;-84
2021/01/13 05:32:06;;;;;;;155.73;72.88;;;26.40;2201.60;;;;;;5038412;28;20056;-86
2021/01/13 05:34:34;;;;;;;151.20;72.15;;;26.20;2201.60;;;;;;5038343;28;20354;-84
2021/01/13 05:37:32;;;;;;;170.50;82.95;;;26.20;2201.60;;;;;;5037830;28;20468;-84
2021/01/13 05:39:58;;;;;;;164.90;80.05;;;26.40;2201.60;;;;;;5039035;28;20020;-87
2021/01/13 05:42:24;;;;;;;159.20;73.72;;;26.40;2201.60;;;;;;5038056;28;20495;-86
2021/01/13 05:44:50;;;;;;;152.55;72.25;;;26.50;2201.60;;;;;;5038407;28;20072;-86
2021/01/13 05:47:51;;;;;;;146.05;73.82;;;51.20;2227.20;;;;;;5038106;28;20057;-86
2021/01/13 05:50:19;;;;;;;140.35;68.53;;;26.50;2201.60;;;;;;5033799;28;20048;-85
2021/01/13 05:52:47;;;;;;;147.45;73.68;;;26.50;2201.60;;;;;;5037905;28;20044;-85
2021/01/13 05:55:16;;;;;;;155.45;83.85;;;26.50;2201.60;;;;;;5037946;28;20033;-85
2021/01/13 05:57:56;;;;;;;196.43;106.25;;;26.50;2201.60;;;;;;5038018;28;20025;-85
2021/01/13 06:00:27;;;;;;;203.98;111.40;;;26.50;2201.60;;;;;;5038243;28;20025;-85
2021/01/13 06:02:59;;;;;;;194.65;101.93;;;51.20;2227.20;;;;;;5037708;28;20112;-87
2021/01/13 06:05:30;;;;;;;172.27;91.63;;;26.50;2201.60;;;;;;5038009;28;20025;-83
2021/01/13 06:07:58;;;;;;;201.02;104.78;;;51.20;2227.20;;;;;;5037680;28;20029;-84
2021/01/13 06:10:34;;;;;;;489.83;274.48;;;26.40;2201.60;;;;;;5037505;28;20025;-85
2021/01/13 06:13:03;;;;;;;346.67;167.13;;;26.20;2201.60;;;;;;5037613;28;20037;-85
2021/01/13 06:15:30;;;;;;;202.23;105.35;;;26.30;2201.60;;;;;;5037251;28;20098;-84
2021/01/13 06:17:58;;;;;;;195.40;98.50;;;26.20;2201.60;;;;;;5037557;28;20113;-85
2021/01/13 06:20:26;;;;;;;173.15;79.10;;;26.20;2201.60;;;;;;5037632;28;20032;-86
2021/01/13 06:22:54;;;;;;;143.88;70.20;;;26.20;2201.60;;;;;;5037496;28;20376;-85
2021/01/13 06:25:28;;;;;;;164.68;75.50;;;26.20;2201.60;;;;;;5037771;28;20053;-85
2021/01/13 06:27:57;;;;;;;149.10;74.50;;;26.20;2201.60;;;;;;5037659;28;20028;-85
2021/01/13 06:30:33;;;;;;;158.35;82.95;;;26.30;2201.60;;;;;;5037247;28;20029;-86
2021/01/13 06:33:20;;;;;;;176.65;88.68;;;26.30;2201.60;;;;;;5037549;28;20472;-84
2021/01/13 06:36:05;;;;;;;187.95;84.40;;;26.20;2201.60;;;;;;5037331;28;20124;-87
2021/01/13 06:38:43;;;;;;;173.30;85.95;;;26.40;2201.60;;;;;;5038015;28;20373;-87
2021/01/13 06:41:09;;;;;;;186.18;90.70;;;26.40;2201.60;;;;;;5036602;28;20075;-85
2021/01/13 06:43:35;;;;;;;192.90;101.10;;;26.40;2201.60;;;;;;5037652;28;20033;-83
2021/01/13 06:46:01;;;;;;;168.85;88.63;;;26.40;2201.60;;;;;;5037268;28;20488;-85
2021/01/13 06:48:29;;;;;;;194.45;100.22;;;26.40;2201.60;;;;;;5037063;28;20033;-85
2021/01/13 06:50:59;;;;;;;260.65;145.38;;;26.20;2201.60;;;;;;5036642;28;20025;-84
2021/01/13 06:53:36;;;;;;;221.32;119.22;;;26.20;2201.60;;;;;;5037721;28;20037;-86
2021/01/13 06:56:10;;;;;;;224.07;114.53;;;26.00;2201.60;;;;;;5037420;28;20484;-84
2021/01/13 06:58:38;;;;;;;180.68;103.07;;;26.00;2201.60;;;;;;5036895;28;20021;-84
2021/01/13 07:01:07;;;;;;;203.13;107.50;;;26.00;2201.60;;;;;;5045500;28;20029;-84
2021/01/13 07:03:32;;;;;;;195.90;102.47;;;26.00;2201.60;;;;;;5056970;28;20058;-87
2021/01/13 07:06:09;;;;;;;196.68;107.20;;;26.00;2201.60;;;;;;5055886;28;20117;-85
2021/01/13 07:08:35;;;;;;;220.77;131.85;;;26.10;2201.60;;;;;;5057018;28;20051;-86
2021/01/13 07:11:06;;;;;;;206.05;107.40;;;26.20;2201.60;;;;;;5056448;28;20024;-87
2021/01/13 07:13:37;;;;;;;204.82;102.60;;;26.20;2201.60;;;;;;5056667;28;20028;-85
2021/01/13 07:16:04;;;;;;;193.20;103.55;;;26.30;2201.60;;;;;;5057136;28;20028;-86
2021/01/13 07:18:32;;;;;;;196.00;106.43;;;26.40;2201.60;;;;;;5056527;28;20035;-86
2021/01/13 07:21:07;;;;;;;185.57;103.30;;;26.40;2201.60;;;;;;5056619;28;20025;-86
2021/01/13 07:23:33;;;;;;;182.48;95.25;;;26.50;2201.60;;;;;;5056690;28;20028;-86
2021/01/13 07:26:00;;;;;;;139.00;72.78;;;51.60;2227.20;;;;;;5056558;28;20035;-87
2021/01/13 07:28:26;;;;;;;200.57;117.63;;;51.20;2227.20;;;;;;5056445;28;20040;-86
2021/01/13 07:30:53;;;;;;;212.57;119.53;;;26.40;2201.60;;;;;;5056550;28;20142;-85
2021/01/13 07:33:20;;;;;;;216.10;115.13;;;26.40;2201.60;;;;;;5056122;28;20044;-84
2021/01/13 07:35:50;;;;;;;229.80;135.20;;;26.40;2201.60;;;;;;5056718;28;20050;-87
2021/01/13 07:38:18;;;;;;;151.60;82.97;;;26.40;2201.60;;;;;;5056207;28;20082;-85
2021/01/13 07:40:57;;;;;;;176.23;99.90;;;26.50;2201.60;;;;;;5056396;28;20080;-86
2021/01/13 07:43:38;;;;;;;139.88;77.43;;;51.20;2227.20;;;;;;5056184;28;20129;-84
2021/01/13 07:46:16;;;;;;;153.38;79.25;;;51.20;2227.20;;;;;;5056909;28;20025;-86
2021/01/13 07:49:06;;;;;;;145.38;75.57;;;51.20;2227.20;;;;;;5056241;28;20031;-85
2021/01/13 07:51:47;;;;;;;180.38;96.15;;;51.30;2227.20;;;;;;5056364;28;20035;-84
2021/01/13 07:54:33;;;;;;;213.43;118.07;;;51.30;2227.20;;;;;;5056112;28;20035;-86
2021/01/13 07:57:01;;;;;;;196.50;108.78;;;26.50;2201.60;;;;;;5056488;28;20029;-86
2021/01/13 07:59:41;;;;;;;203.57;106.85;;;51.20;2227.20;;;;;;5057118;28;20021;-86
2021/01/13 08:02:41;;;;;;;172.90;98.72;;;51.20;2227.20;;;;;;5054113;28;20418;-85
2021/01/13 08:05:16;;;;;;;272.23;136.93;;;51.40;2227.20;;;;;;5055590;28;20029;-83
2021/01/13 08:07:43;;;;;;;254.63;137.85;;;51.40;2227.20;;;;;;5056076;28;20098;-85
2021/01/13 08:10:10;;;;;;;142.43;78.85;;;51.40;2227.20;;;;;;5056305;28;20028;-85
2021/01/13 08:13:27;;;;;;;140.43;83.95;;;51.50;2227.20;;;;;;5056103;28;20024;-85
2021/01/13 08:16:11;;;;;;;235.85;127.97;;;51.60;2227.20;;;;;;5056137;28;20037;-85
2021/01/13 08:19:11;;;;;;;156.73;86.88;;;51.60;2227.20;;;;;;5056517;28;20029;-85
2021/01/13 08:21:44;;;;;;;188.18;124.10;;;51.60;2227.20;;;;;;5055910;28;20033;-86
2021/01/13 08:24:16;;;;;;;274.35;156.20;;;51.70;2227.20;;;;;;5056895;28;20056;-85
2021/01/13 08:26:45;;;;;;;194.95;117.32;;;51.70;2227.20;;;;;;5047914;28;20063;-86
2021/01/13 08:29:36;;;;;;;129.82;79.25;;;51.70;2227.20;;;;;;5036147;28;20029;-86
2021/01/13 08:32:11;;;;;;;128.93;75.43;;;51.70;2227.20;;;;;;5028335;28;20413;-86
2021/01/13 08:34:45;;;;;;;134.48;73.38;;;51.80;2227.20;;;;;;5042119;28;20018;-85
2021/01/13 08:37:12;;;;;;;150.02;83.32;;;51.90;2227.20;;;;;;5040996;28;20083;-85
2021/01/13 08:39:42;;;;;;;126.75;71.15;;;51.90;2227.20;;;;;;5054686;28;20039;-85
2021/01/13 08:42:22;;;;;;;153.73;92.93;;;77.10;2227.20;;;;;;5037337;28;20154;-85
2021/01/13 08:44:49;;;;;;;110.18;67.22;;;52.10;2227.20;;;;;;5041510;28;20079;-82
2021/01/13 08:47:16;;;;;;;137.85;90.18;;;52.00;2227.20;;;;;;5048880;28;20024;-82
2021/01/13 08:49:42;;;;;;;102.85;62.22;;;51.60;2227.20;;;;;;5054557;28;20025;-85
2021/01/13 08:52:22;;;;;;;106.38;63.53;;;51.90;2227.20;;;;;;5041608;28;20508;-82
2021/01/13 08:54:48;;;;;;;99.00;58.17;;;52.00;2227.20;;;;;;5047716;28;20039;-84
2021/01/13 08:57:16;;;;;;;116.15;62.70;;;52.00;2227.20;;;;;;5058639;28;20029;-83
2021/01/13 08:59:46;;;;;;;146.50;85.25;;;52.00;2227.20;;;;;;5050751;28;20380;-86
2021/01/13 09:02:14;;;;;;;110.80;62.63;;;52.00;2227.20;;;;;;5039178;28;20028;-82
2021/01/13 09:04:56;;;;;;;131.23;71.75;;;51.90;2227.20;;;;;;5043574;28;20068;-84
2021/01/13 09:07:44;;;;;;;129.40;72.50;;;51.90;2227.20;;;;;;5034162;28;20071;-85
2021/01/13 09:10:11;;;;;;;133.52;72.53;;;52.00;2227.20;;;;;;5016987;28;20036;-83
2021/01/13 09:12:46;;;;;;;136.30;79.40;;;52.00;2227.20;;;;;;5018038;28;20116;-85
2021/01/13 09:15:13;;;;;;;82.38;44.55;;;52.00;2227.20;;;;;;5018049;28;20120;-84
2021/01/13 09:17:56;;;;;;;98.57;57.35;;;52.00;2227.20;;;;;;5036872;28;20118;-84
2021/01/13 09:20:27;;;;;;;152.52;88.97;;;52.00;2227.20;;;;;;5055218;28;20093;-85
2021/01/13 09:22:56;;;;;;;116.18;71.93;;;52.00;2227.20;;;;;;5036192;28;20063;-85
2021/01/13 09:25:30;;;;;;;114.95;64.60;;;52.00;2227.20;;;;;;5037293;28;20060;-85
2021/01/13 09:28:02;;;;;;;120.07;71.47;;;52.00;2227.20;;;;;;5037985;28;20472;-82
2021/01/13 09:30:38;;;;;;;130.43;75.97;;;52.00;2227.20;;;;;;5034140;28;20052;-81
2021/01/13 09:33:22;;;;;;;103.05;56.10;;;52.10;2227.20;;;;;;5034429;28;20118;-81
2021/01/13 09:35:59;;;;;;;85.57;50.67;;;52.00;2227.20;;;;;;5037405;28;20032;-84
2021/01/13 09:38:27;;;;;;;85.35;50.38;;;52.10;2227.20;;;;;;5041833;28;20055;-86
2021/01/13 09:41:01;;;;;;;82.53;47.03;;;52.10;2227.20;;;;;;5056749;28;20029;-86
2021/01/13 09:43:34;;;;;;;124.05;79.13;;;52.10;2227.20;;;;;;5056587;28;20427;-86
2021/01/13 09:46:20;;;;;;;118.13;73.55;;;52.10;2227.20;;;;;;5056790;28;20036;-84
2021/01/13 09:49:07;;;;;;;111.25;68.45;;;76.80;2227.20;;;;;;5056023;28;20032;-83
2021/01/13 09:51:34;;;;;;;113.32;68.25;;;76.80;2227.20;;;;;;5056900;28;20043;-86
2021/01/13 09:54:03;;;;;;;104.00;58.15;;;76.80;2227.20;;;;;;5074752;28;20028;-82
2021/01/13 09:56:30;;;;;;;128.07;79.78;;;76.90;2227.20;;;;;;5057094;28;20060;-85
2021/01/13 09:58:57;;;;;;;91.15;52.78;;;76.90;2227.20;;;;;;5057736;28;20021;-85
2021/01/13 10:01:30;;;;;;;76.32;45.88;;;77.00;2227.20;;;;;;5069505;28;20021;-82
2021/01/13 10:03:59;;;;;;;79.07;48.30;;;77.10;2227.20;;;;;;5034779;28;20041;-81
2021/01/13 10:06:27;;;;;;;82.47;48.08;;;77.00;2227.20;;;;;;5032298;28;20113;-82
2021/01/13 10:08:58;;;;;;;97.47;58.65;;;76.90;2227.20;;;;;;5035507;28;20033;-83
2021/01/13 10:11:26;;;;;;;98.13;58.38;;;76.90;2227.20;;;;;;5036651;28;20021;-85
2021/01/13 10:14:03;;;;;;;115.68;71.68;;;76.90;2227.20;;;;;;5034707;28;20028;-84
2021/01/13 10:16:31;;;;;;;96.97;57.92;;;76.90;2227.20;;;;;;5049087;28;20029;-81
2021/01/13 10:18:59;;;;;;;116.57;71.85;;;76.80;2227.20;;;;;;5035332;28;20016;-86
2021/01/13 10:21:36;;;;;;;109.38;68.50;;;76.90;2227.20;;;;;;5032204;28;20063;-83
2021/01/13 10:24:07;;;;;;;113.85;72.00;;;76.80;2227.20;;;;;;5037803;28;20032;-84
2021/01/13 10:26:44;;;;;;;128.90;80.30;;;76.80;2227.20;;;;;;5032013;28;20021;-79
2021/01/13 10:29:12;;;;;;;132.52;79.05;;;76.90;2227.20;;;;;;5035275;28;20021;-82
2021/01/13 10:31:38;;;;;;;116.05;72.03;;;52.10;2227.20;;;;;;5034069;28;20068;-82
2021/01/13 10:34:05;;;;;;;111.32;67.05;;;52.10;2227.20;;;;;;5034313;28;20025;-82
2021/01/13 10:36:41;;;;;;;132.05;79.18;;;51.90;2227.20;;;;;;5036199;28;20487;-84
2021/01/13 10:39:30;;;;;;;97.18;61.05;;;76.90;2227.20;;;;;;5032961;28;20040;-79
2021/01/13 10:41:57;;;;;;;88.88;51.50;;;76.90;2227.20;;;;;;5028299;28;20100;-87
2021/01/13 10:44:29;;;;;;;89.05;55.10;;;77.00;2227.20;;;;;;5016482;28;20420;-80
2021/01/13 10:46:58;;;;;;;87.68;53.05;;;77.00;2227.20;;;;;;5016230;28;20025;-85
2021/01/13 10:49:33;;;;;;;99.35;58.72;;;77.10;2227.20;;;;;;5016490;28;20104;-86
2021/01/13 10:52:04;;;;;;;121.82;74.65;;;77.20;2227.20;;;;;;5016473;28;20030;-84
2021/01/13 10:54:33;;;;;;;146.43;90.47;;;77.00;2227.20;;;;;;5016166;28;20032;-85
2021/01/13 10:57:02;;;;;;;139.27;87.28;;;77.10;2227.20;;;;;;5016522;28;20480;-82
2021/01/13 10:59:29;;;;;;;174.18;106.15;;;77.10;2227.20;;;;;;5016227;28;20167;-80
2021/01/13 11:02:10;;;;;;;149.02;91.32;;;52.10;2227.20;;;;;;5009322;28;20061;-83
2021/01/13 11:04:42;;;;;;;158.70;91.40;;;76.90;2227.20;;;;;;5000778;28;20464;-84
2021/01/13 11:07:11;;;;;;;125.65;75.43;;;77.00;2227.20;;;;;;5033224;28;20029;-84
2021/01/13 11:09:44;;;;;;;141.98;84.63;;;77.10;2227.20;;;;;;5016891;28;20135;-88
2021/01/13 11:12:16;;;;;;;141.15;86.18;;;77.10;2227.20;;;;;;5016701;28;20068;-85
2021/01/13 11:14:46;;;;;;;130.60;80.15;;;77.00;2227.20;;;;;;5016446;28;20033;-83
2021/01/13 11:17:23;;;;;;;131.50;75.65;;;76.90;2227.20;;;;;;5016445;28;20500;-86
2021/01/13 11:19:52;;;;;;;123.55;76.22;;;76.90;2227.20;;;;;;5016514;28;20053;-86
2021/01/13 11:22:44;;;;;;;125.90;74.18;;;76.90;2227.20;;;;;;5016505;28;20037;-87
2021/01/13 11:25:36;;;;;;;126.28;77.13;;;76.90;2227.20;;;;;;5016552;28;20437;-87
2021/01/13 11:28:10;;;;;;;122.15;75.05;;;76.80;2227.20;;;;;;5016061;28;20033;-86
2021/01/13 11:30:48;;;;;;;117.90;73.80;;;52.10;2227.20;;;;;;5015721;28;20036;-89
2021/01/13 11:33:17;;;;;;;130.77;77.07;;;76.80;2227.20;;;;;;5017210;28;20040;-90
2021/01/13 11:35:47;;;;;;;150.15;92.28;;;76.90;2227.20;;;;;;5015578;28;20064;-86
2021/01/13 11:38:37;;;;;;;142.55;88.32;;;76.80;2227.20;;;;;;5015260;28;20619;-88
2021/01/13 11:41:21;;;;;;;134.43;85.15;;;77.10;2227.20;;;;;;5016756;28;20069;-86
2021/01/13 11:44:04;;;;;;;80.75;47.45;;;77.20;2227.20;;;;;;5017349;28;20033;-86
2021/01/13 11:46:50;;;;;;;73.82;48.33;;;77.30;2227.20;;;;;;5016813;28;20079;-85
2021/01/13 11:49:28;;;;;;;67.93;40.97;;;77.20;2227.20;;;;;;5016584;28;20021;-85
2021/01/13 11:51:56;;;;;;;63.58;46.50;;;77.00;2227.20;;;;;;5033717;28;20030;-85
2021/01/13 11:54:26;;;;;;;55.22;42.47;;;77.30;2227.20;;;;;;5016155;28;20033;-85
2021/01/13 11:56:52;;;;;;;42.65;26.67;;;77.30;2227.20;;;;;;5016687;28;20033;-86
2021/01/13 11:59:29;;;;;;;50.63;31.65;;;77.30;2227.20;;;;;;5016428;28;20025;-84
2021/01/13 12:01:59;;;;;;;51.20;32.03;;;77.40;2227.20;;;;;;5015602;28;20104;-87
2021/01/13 12:04:25;;;;;;;55.90;35.35;;;77.40;2227.20;;;;;;5016118;28;20025;-84
2021/01/13 12:06:55;;;;;;;60.95;35.63;;;77.40;2227.20;;;;;;5015669;28;20064;-87
2021/01/13 12:09:21;;;;;;;60.80;39.85;;;77.40;2227.20;;;;;;5016378;28;20120;-83
2021/01/13 12:11:48;;;;;;;57.03;34.75;;;77.50;2227.20;;;;;;5016015;28;20180;-84
2021/01/13 12:14:14;;;;;;;47.95;30.92;;;77.50;2227.20;;;;;;5016391;28;20112;-87
2021/01/13 12:16:40;;;;;;;49.70;32.38;;;77.00;2227.20;;;;;;5016210;28;20116;-86
2021/01/13 12:19:06;;;;;;;49.28;29.95;;;77.50;2227.20;;;;;;5016206;28;20041;-84
2021/01/13 12:21:33;;;;;;;84.03;56.85;;;77.50;2227.20;;;;;;5015316;28;20060;-85
2021/01/13 12:24:14;;;;;;;47.05;28.60;;;77.50;2227.20;;;;;;5015837;28;20469;-84